Hauptseite
METAR-TAF:

METAR-TAF

Flughäfen :

Lechfeld, Deutschland

Fliegerhorst Lechfeld

Breite: 48-11N, Länge: 010-52E, Höhe: 555 m

Beobachtung

Neuester Wetterbericht von vor 53 Minuten, um 23:20 UTC
Wind 10 kt aus West/Südwest
Temperatur 2°C
Luftfeuchtigkeit 80%
Luftdruck 1022 hPa
Sichtweite 10 km oder mehr
Durchbrochene Bewölkung in der Höhe von 5000 ft
Durchbrochene Bewölkung in der Höhe von 9000 ft

METAR: ETSL 192320Z 24010KT 9999 BKN050 BKN090 02/M01 Q1022 BLU

Zeit: 01:13 (00:13 UTC)


TAF: fehlend

Wetterbeobachtungen und Prognosen von mehr als 4000 Flughäfen (METAR und TAF Bericht).

Die verfügbaren Stationen werden durch gelbe und rote Markierungen auf der Karte dargestellt.

Führen Sie die Maus auf sie, um den Namen der Station zu sehen.

Darauf klicken, um die Beobachtung von Wetterbeobachtungen und Prognosen zu sehen.

Um die Karte zu ändern : klicken Sie auf den grünen Tasten mit einem schwarzen Kreuz Zum Vergrößern, auf den grünen Button mit einem Gedankenstrich zu verkleinern, oder auf die grünen Pfeile für benachbarte Karten.


METAR-TAF: